createdAt,value
2022-11-17T00:03:52.051Z,99157.13
2022-11-17T00:08:54.643Z,99174.38
2022-11-17T00:14:15.767Z,99172.97
2022-11-17T00:19:37.003Z,99174.53
2022-11-17T00:24:39.573Z,99165.91
2022-11-17T00:29:42.315Z,99159.38
2022-11-17T00:34:44.962Z,99135.44
2022-11-17T00:39:47.467Z,99144.16
2022-11-17T00:44:50.057Z,99139.41
2022-11-17T00:49:52.594Z,99137.88
2022-11-17T00:54:55.112Z,99142.88
2022-11-17T00:59:57.633Z,99136.59
2022-11-17T01:05:00.216Z,99119.63
2022-11-17T01:10:02.749Z,99088.53
2022-11-17T01:15:06.131Z,99111.84
2022-11-17T01:20:09.348Z,99104.16
2022-11-17T01:25:11.989Z,99099.38
2022-11-17T01:30:18.409Z,99094.28
2022-11-17T01:35:20.915Z,99094.38
2022-11-17T01:40:23.467Z,99092.69
2022-11-17T01:45:26.968Z,99078.28
2022-11-17T01:50:42.439Z,99061.16
2022-11-17T01:55:52.330Z,99074.84
2022-11-17T02:00:55.799Z,99073.53
2022-11-17T02:06:06.108Z,99071.31
2022-11-17T02:11:18.227Z,99066.50
2022-11-17T02:16:20.951Z,99063.50
2022-11-17T02:21:35.264Z,99064.03
2022-11-17T02:26:59.008Z,99067.69
2022-11-17T02:32:04.901Z,99045.75
2022-11-17T02:37:16.529Z,99044.94
2022-11-17T02:42:48.464Z,99043.25
2022-11-17T02:47:54.963Z,99036.16
2022-11-17T02:52:57.687Z,99014.97
2022-11-17T02:58:00.297Z,99024.50
2022-11-17T03:03:35.500Z,99010.38
2022-11-17T03:09:02.936Z,99013.53
2022-11-17T03:14:20.152Z,98999.72
2022-11-17T03:19:32.600Z,99004.91
2022-11-17T03:24:49.869Z,99009.78
2022-11-17T03:29:57.167Z,98996.09
2022-11-17T03:35:08.227Z,99005.69
2022-11-17T03:40:15.010Z,98969.97
2022-11-17T03:45:22.730Z,99002.88
2022-11-17T03:50:32.202Z,98970.31
2022-11-17T03:56:16.201Z,98991.16
2022-11-17T04:01:21.099Z,98987.59
2022-11-17T04:06:23.771Z,98985.31
2022-11-17T04:11:45.121Z,98974.91
2022-11-17T04:16:47.718Z,98984.50
2022-11-17T04:21:50.338Z,98960.59
2022-11-17T04:27:11.256Z,98970.81
2022-11-17T04:32:13.868Z,98971.06
2022-11-17T04:37:19.771Z,98936.19
2022-11-17T04:42:22.305Z,98959.84
2022-11-17T04:47:24.883Z,98962.28
2022-11-17T04:52:29.940Z,98939.91
2022-11-17T04:57:32.702Z,98961.16
2022-11-17T05:02:35.354Z,98970.72
2022-11-17T05:07:38.060Z,98969.38
2022-11-17T05:13:01.248Z,98966.59
2022-11-17T05:18:03.877Z,98966.53
2022-11-17T05:23:25.061Z,98931.50
2022-11-17T05:28:27.600Z,98940.25
2022-11-17T05:33:36.441Z,98952.50
2022-11-17T05:38:40.655Z,98969.66
2022-11-17T05:43:43.961Z,98958.72
2022-11-17T05:48:48.854Z,98928.13
2022-11-17T05:53:51.762Z,98952.19
2022-11-17T05:59:03.872Z,98948.09
2022-11-17T06:04:08.752Z,98948.38
2022-11-17T06:09:11.969Z,98921.88
2022-11-17T06:14:14.573Z,98950.19
2022-11-17T06:24:25.563Z,98954.66
2022-11-17T06:29:29.006Z,98942.97
2022-11-17T06:34:33.007Z,98949.66
2022-11-17T06:39:35.660Z,98952.44
2022-11-17T06:44:38.195Z,98940.53
2022-11-17T06:49:40.844Z,98949.25
2022-11-17T06:54:43.495Z,98948.59
2022-11-17T06:59:46.183Z,98954.94
2022-11-17T07:04:48.766Z,98942.50
2022-11-17T07:09:51.384Z,98937.50
2022-11-17T07:14:53.933Z,98938.53
2022-11-17T07:19:56.909Z,98936.38
2022-11-17T07:24:59.513Z,98909.03
2022-11-17T07:30:03.082Z,98945.13
2022-11-17T07:35:06.927Z,98930.66
2022-11-17T07:40:10.257Z,98950.97
2022-11-17T07:45:13.043Z,98955.78
2022-11-17T07:50:16.166Z,98929.13
2022-11-17T07:55:19.298Z,98919.22
2022-11-17T08:00:22.312Z,98939.16
2022-11-17T08:05:26.689Z,98952.59
2022-11-17T08:10:31.502Z,98946.81
2022-11-17T08:15:34.161Z,98940.03
2022-11-17T08:20:37.036Z,98936.69
2022-11-17T08:25:39.754Z,98922.03
2022-11-17T08:30:44.411Z,98941.41
2022-11-17T08:35:47.167Z,98942.19
2022-11-17T08:40:49.813Z,98951.97
2022-11-17T08:45:53.147Z,98930.38
2022-11-17T08:50:56.386Z,98933.78
2022-11-17T08:55:59.774Z,98938.28
2022-11-17T09:01:05.273Z,98913.63
2022-11-17T09:06:08.934Z,98935.88
2022-11-17T09:11:12.535Z,98935.44
2022-11-17T09:16:16.063Z,98935.50
2022-11-17T09:21:18.685Z,98928.88
2022-11-17T09:26:21.448Z,98928.50
2022-11-17T09:31:24.180Z,98919.97
2022-11-17T09:36:27.060Z,98919.16
2022-11-17T09:41:44.583Z,98928.91
2022-11-17T09:46:56.653Z,98924.78
2022-11-17T09:52:11.448Z,98905.88
2022-11-17T09:57:40.982Z,98918.72
2022-11-17T10:02:43.726Z,98919.59
2022-11-17T10:07:51.750Z,98913.72
2022-11-17T10:12:58.290Z,98928.66
2022-11-17T10:18:00.948Z,98919.91
2022-11-17T10:23:04.711Z,98909.63
2022-11-17T10:28:09.821Z,98924.97
2022-11-17T10:33:13.392Z,98931.13
2022-11-17T10:38:22.967Z,98935.44
2022-11-17T10:43:37.077Z,98921.38
2022-11-17T10:48:55.241Z,98918.94
2022-11-17T10:54:14.870Z,98912.81
2022-11-17T10:59:29.934Z,98928.28
2022-11-17T11:04:39.634Z,98922.50
2022-11-17T11:09:49.561Z,98925.22
2022-11-17T11:14:56.277Z,98925.41
2022-11-17T11:19:59.392Z,98941.13
2022-11-17T11:25:21.254Z,98935.19
2022-11-17T11:30:24.012Z,98927.19
2022-11-17T11:35:53.334Z,98927.84
2022-11-17T11:41:42.588Z,98932.09
2022-11-17T11:47:09.386Z,98937.06
2022-11-17T11:52:22.974Z,98938.56
2022-11-17T11:57:32.875Z,98947.28
2022-11-17T12:02:50.333Z,98950.06
2022-11-17T12:07:56.687Z,98931.41
2022-11-17T12:12:59.992Z,98942.16
2022-11-17T12:18:06.450Z,98940.84
2022-11-17T12:23:27.714Z,98955.16
2022-11-17T12:28:40.234Z,98946.31
2022-11-17T12:33:52.077Z,98957.50
2022-11-17T12:38:55.285Z,98948.09
2022-11-17T12:44:36.345Z,98954.69
2022-11-17T12:49:58.022Z,98957.41
2022-11-17T12:55:18.043Z,98954.75
2022-11-17T13:00:23.547Z,98961.84
2022-11-17T13:05:30.348Z,98953.88
2022-11-17T13:10:33.103Z,98939.25
2022-11-17T13:15:35.669Z,98976.00
2022-11-17T13:20:39.652Z,98969.00
2022-11-17T13:25:42.603Z,98969.25
2022-11-17T13:30:47.053Z,98962.56
2022-11-17T13:35:51.456Z,98972.38
2022-11-17T13:40:54.190Z,98958.13
2022-11-17T13:45:57.580Z,98973.06
2022-11-17T13:51:38.908Z,98973.53
2022-11-17T13:56:47.463Z,98986.91
2022-11-17T14:02:10.155Z,98990.59
2022-11-17T14:07:15.083Z,98994.63
2022-11-17T14:12:17.785Z,98984.47
2022-11-17T14:17:22.238Z,98933.13
2022-11-17T14:22:31.348Z,99000.88
2022-11-17T14:27:37.099Z,98988.75
2022-11-17T14:32:40.257Z,99012.22
2022-11-17T14:37:43.581Z,98978.69
2022-11-17T14:42:46.295Z,98992.69
2022-11-17T14:47:48.934Z,98981.88
2022-11-17T14:52:51.454Z,98983.53
2022-11-17T14:57:54.424Z,98996.91
2022-11-17T15:02:57.205Z,98987.53
2022-11-17T15:07:59.895Z,98997.78
2022-11-17T15:13:02.453Z,99001.50
2022-11-17T15:18:05.379Z,98978.34
2022-11-17T15:23:08.452Z,98996.38
2022-11-17T15:28:15.016Z,99005.13
2022-11-17T15:33:19.547Z,98985.16
2022-11-17T15:38:22.160Z,98960.06
2022-11-17T15:43:32.581Z,98957.34
2022-11-17T15:48:40.117Z,98984.66
2022-11-17T15:53:43.783Z,98984.41
2022-11-17T15:58:47.756Z,98969.75
2022-11-17T16:03:51.104Z,98981.03
2022-11-17T16:08:53.981Z,98972.56
2022-11-17T16:13:57.621Z,98977.00
2022-11-17T16:19:00.237Z,98923.44
2022-11-17T16:24:03.537Z,98953.69
2022-11-17T16:29:07.512Z,98953.84
2022-11-17T16:34:13.425Z,98992.00
2022-11-17T16:39:17.478Z,98977.78
2022-11-17T16:44:20.726Z,98950.75
2022-11-17T16:49:23.708Z,98961.38
2022-11-17T16:54:26.298Z,98964.63
2022-11-17T16:59:28.913Z,98915.72
2022-11-17T17:04:32.038Z,98963.16
2022-11-17T17:09:34.751Z,98963.94
2022-11-17T17:14:37.319Z,98949.09
2022-11-17T17:19:39.935Z,98966.66
2022-11-17T17:24:42.698Z,98957.63
2022-11-17T17:29:45.373Z,98950.63
2022-11-17T17:34:47.922Z,98948.22
2022-11-17T17:39:50.512Z,98949.94
2022-11-17T17:44:53.106Z,98954.03
2022-11-17T17:49:55.856Z,98954.38
2022-11-17T17:54:58.512Z,98938.22
2022-11-17T18:00:01.083Z,98973.22
2022-11-17T18:05:07.013Z,98952.66
2022-11-17T18:10:09.712Z,98958.59
2022-11-17T18:15:12.247Z,98957.22
2022-11-17T18:20:15.131Z,98946.06
2022-11-17T18:25:18.097Z,98949.56
2022-11-17T18:30:20.722Z,98955.09
2022-11-17T18:35:23.364Z,98955.25
2022-11-17T18:40:26.348Z,98904.59
2022-11-17T18:45:29.553Z,98940.66
2022-11-17T18:50:32.129Z,98954.34
2022-11-17T18:55:34.689Z,98954.69
2022-11-17T19:00:37.406Z,98949.31
2022-11-17T19:05:39.973Z,98953.84
2022-11-17T19:10:52.813Z,98947.84
2022-11-17T19:15:55.545Z,98952.38
2022-11-17T19:21:08.522Z,98944.63
2022-11-17T19:26:20.024Z,98949.31
2022-11-17T19:31:23.368Z,98935.25
2022-11-17T19:36:31.773Z,98943.31
2022-11-17T19:41:37.020Z,98917.34
2022-11-17T19:46:39.978Z,98935.34
2022-11-17T19:51:42.638Z,98929.09
2022-11-17T19:56:45.676Z,98929.09
2022-11-17T20:01:48.282Z,98933.47
2022-11-17T20:06:51.064Z,98924.41
2022-11-17T20:11:53.742Z,98910.44
2022-11-17T20:16:56.408Z,98914.81
2022-11-17T20:21:59.066Z,98914.56
2022-11-17T20:27:01.636Z,98927.41
2022-11-17T20:32:04.422Z,98898.03
2022-11-17T20:37:06.993Z,98923.44
2022-11-17T20:42:10.434Z,98898.78
2022-11-17T20:47:13.110Z,98906.56
2022-11-17T20:52:15.937Z,98902.63
2022-11-17T20:57:18.905Z,98859.75
2022-11-17T21:02:21.417Z,98865.03
2022-11-17T21:07:24.014Z,98897.47
2022-11-17T21:12:27.294Z,98902.31
2022-11-17T21:17:48.374Z,98863.78
2022-11-17T21:22:51.052Z,98881.75
2022-11-17T21:27:53.595Z,98889.84
2022-11-17T21:32:56.178Z,98860.44
2022-11-17T21:37:59.289Z,98884.97
2022-11-17T21:43:08.049Z,98882.63
2022-11-17T21:48:10.794Z,98862.88
2022-11-17T21:53:13.425Z,98875.84
2022-11-17T21:58:15.920Z,98861.00
2022-11-17T22:03:18.528Z,98866.56
2022-11-17T22:08:21.064Z,98860.41
2022-11-17T22:13:23.630Z,98859.00
2022-11-17T22:18:26.195Z,98853.56
2022-11-17T22:23:28.862Z,98838.28
2022-11-17T22:28:31.535Z,98857.47
2022-11-17T22:33:34.180Z,98864.78
2022-11-17T22:38:36.867Z,98865.84
2022-11-17T22:43:39.615Z,98883.06
2022-11-17T22:48:42.202Z,98887.31
2022-11-17T22:53:44.976Z,98862.91
2022-11-17T22:58:50.059Z,98866.94
2022-11-17T23:03:52.814Z,98863.53
2022-11-17T23:08:57.520Z,98860.47
2022-11-17T23:14:00.155Z,98869.09
2022-11-17T23:19:03.158Z,98847.53
2022-11-17T23:24:06.091Z,98855.50
2022-11-17T23:29:09.482Z,98835.47
2022-11-17T23:34:12.213Z,98839.44
2022-11-17T23:39:15.355Z,98830.56
2022-11-17T23:44:18.283Z,98826.28
2022-11-17T23:49:20.843Z,98819.19
2022-11-17T23:54:23.457Z,98809.75
2022-11-17T23:59:26.006Z,98794.19
